createdAt,value
2023-04-21T00:00:10.345Z,8.50
2023-04-21T00:02:41.659Z,8.50
2023-04-21T00:05:12.662Z,8.50
2023-04-21T00:07:41.750Z,8.40
2023-04-21T00:10:13.473Z,8.40
2023-04-21T00:12:42.260Z,8.40
2023-04-21T00:15:12.805Z,8.40
2023-04-21T00:17:41.819Z,8.40
2023-04-21T00:20:11.638Z,8.40
2023-04-21T00:22:40.163Z,8.40
2023-04-21T00:25:09.300Z,8.30
2023-04-21T00:27:39.215Z,8.30
2023-04-21T00:30:09.013Z,8.30
2023-04-21T00:32:39.424Z,8.20
2023-04-21T00:35:08.941Z,8.20
2023-04-21T00:37:37.556Z,8.20
2023-04-21T00:40:07.141Z,8.20
2023-04-21T00:42:35.795Z,8.20
2023-04-21T00:45:06.632Z,8.10
2023-04-21T00:47:35.277Z,8.10
2023-04-21T00:50:04.755Z,8.20
2023-04-21T00:52:34.204Z,8.20
2023-04-21T00:55:03.787Z,8.20
2023-04-21T00:57:33.506Z,8.20
2023-04-21T01:00:02.194Z,8.20
2023-04-21T01:02:37.780Z,8.20
2023-04-21T01:05:09.116Z,8.20
2023-04-21T01:07:40.481Z,8.20
2023-04-21T01:10:10.210Z,8.30
2023-04-21T01:12:44.747Z,8.30
2023-04-21T01:15:13.506Z,8.30
2023-04-21T01:17:45.403Z,8.30
2023-04-21T01:20:16.402Z,8.30
2023-04-21T01:22:47.125Z,8.20
2023-04-21T01:25:18.603Z,8.20
2023-04-21T01:27:47.337Z,8.10
2023-04-21T01:30:15.971Z,8.10
2023-04-21T01:32:44.709Z,8.00
2023-04-21T01:35:13.456Z,7.90
2023-04-21T01:37:42.057Z,7.90
2023-04-21T01:40:12.673Z,7.80
2023-04-21T01:42:43.736Z,7.90
2023-04-21T01:45:13.442Z,7.90
2023-04-21T01:48:07.235Z,7.90
2023-04-21T01:50:35.816Z,7.90
2023-04-21T01:53:04.433Z,7.90
2023-04-21T01:55:34.562Z,8.00
2023-04-21T01:58:03.198Z,8.00
2023-04-21T02:00:32.521Z,8.00
2023-04-21T02:03:01.434Z,8.00
2023-04-21T02:05:30.237Z,8.00
2023-04-21T02:07:58.848Z,7.90
2023-04-21T02:10:27.421Z,7.90
2023-04-21T02:12:57.492Z,7.90
2023-04-21T02:15:26.359Z,7.80
2023-04-21T02:17:54.953Z,7.70
2023-04-21T02:20:27.243Z,7.70
2023-04-21T02:22:55.821Z,7.60
2023-04-21T02:25:24.588Z,7.60
2023-04-21T02:27:53.049Z,7.50
2023-04-21T02:30:23.041Z,7.50
2023-04-21T02:32:52.177Z,7.50
2023-04-21T02:35:20.846Z,7.50
2023-04-21T02:37:49.363Z,7.50
2023-04-21T02:40:17.990Z,7.40
2023-04-21T02:42:46.620Z,7.40
2023-04-21T02:45:15.244Z,7.40
2023-04-21T02:47:45.358Z,7.30
2023-04-21T02:50:15.569Z,7.20
2023-04-21T02:52:44.167Z,7.10
2023-04-21T02:55:12.923Z,7.20
2023-04-21T02:57:43.290Z,7.10
2023-04-21T03:00:14.104Z,7.00
2023-04-21T03:02:45.539Z,7.00
2023-04-21T03:05:14.384Z,6.90
2023-04-21T03:07:46.712Z,6.90
2023-04-21T03:10:15.547Z,6.80
2023-04-21T03:12:44.283Z,6.70
2023-04-21T03:15:14.335Z,6.70
2023-04-21T03:17:44.446Z,6.70
2023-04-21T03:20:13.336Z,6.70
2023-04-21T03:22:41.970Z,6.70
2023-04-21T03:25:11.492Z,6.60
2023-04-21T03:27:40.254Z,6.60
2023-04-21T03:30:09.962Z,6.50
2023-04-21T03:32:38.537Z,6.60
2023-04-21T03:35:09.000Z,6.50
2023-04-21T03:37:37.659Z,6.50
2023-04-21T03:40:08.742Z,6.40
2023-04-21T03:42:37.728Z,6.40
2023-04-21T03:45:08.100Z,6.30
2023-04-21T03:47:36.872Z,6.30
2023-04-21T03:50:06.232Z,6.30
2023-04-21T03:52:36.108Z,6.20
2023-04-21T03:55:05.238Z,6.20
2023-04-21T03:57:33.931Z,6.20
2023-04-21T04:00:02.514Z,6.30
2023-04-21T04:02:42.188Z,6.40
2023-04-21T04:05:11.042Z,6.60
2023-04-21T04:07:40.960Z,6.80
2023-04-21T04:10:09.830Z,7.20
2023-04-21T04:12:38.422Z,7.60
2023-04-21T04:15:08.659Z,8.10
2023-04-21T04:17:37.294Z,8.60
2023-04-21T04:20:08.463Z,9.20
2023-04-21T04:22:37.290Z,9.70
2023-04-21T04:25:07.784Z,10.10
2023-04-21T04:27:37.062Z,10.40
2023-04-21T04:30:07.573Z,10.50
2023-04-21T04:32:38.281Z,11.10
2023-04-21T04:35:08.240Z,11.30
2023-04-21T04:37:38.043Z,11.60
2023-04-21T04:40:12.290Z,11.90
2023-04-21T04:42:41.324Z,12.10
2023-04-21T04:45:11.478Z,12.30
2023-04-21T04:47:40.529Z,12.60
2023-04-21T04:50:09.572Z,12.90
2023-04-21T04:52:38.157Z,13.20
2023-04-21T04:55:09.375Z,13.70
2023-04-21T04:57:37.883Z,13.80
2023-04-21T05:00:11.228Z,14.10
2023-04-21T05:02:40.236Z,14.20
2023-04-21T05:05:09.600Z,14.20
2023-04-21T05:07:38.520Z,14.30
2023-04-21T05:10:09.420Z,14.30
2023-04-21T05:12:38.061Z,14.10
2023-04-21T05:15:07.285Z,14.40
2023-04-21T05:17:36.059Z,14.40
2023-04-21T05:20:05.985Z,14.70
2023-04-21T05:22:38.644Z,15.20
2023-04-21T05:25:09.143Z,15.50
2023-04-21T05:27:37.701Z,15.60
2023-04-21T05:30:07.005Z,15.60
2023-04-21T05:32:36.436Z,16.10
2023-04-21T05:35:05.313Z,16.40
2023-04-21T05:37:34.067Z,16.30
2023-04-21T05:40:02.741Z,16.30
2023-04-21T05:42:34.067Z,16.50
2023-04-21T05:45:07.785Z,16.80
2023-04-21T05:47:37.558Z,16.90
2023-04-21T05:50:06.851Z,16.60
2023-04-21T05:52:37.322Z,16.80
2023-04-21T05:55:06.906Z,17.00
2023-04-21T05:57:36.918Z,17.10
2023-04-21T06:00:07.227Z,17.60
2023-04-21T06:02:36.102Z,17.60
2023-04-21T06:05:05.211Z,17.90
2023-04-21T06:07:37.262Z,18.20
2023-04-21T06:10:06.624Z,18.40
2023-04-21T06:12:36.547Z,18.70
2023-04-21T06:15:05.669Z,18.60
2023-04-21T06:17:34.364Z,18.70
2023-04-21T06:20:04.180Z,19.10
2023-04-21T06:22:33.792Z,18.80
2023-04-21T06:25:02.569Z,18.90
2023-04-21T06:27:32.345Z,19.20
2023-04-21T06:30:02.512Z,19.30
2023-04-21T06:32:33.643Z,19.50
2023-04-21T06:35:02.268Z,20.00
2023-04-21T06:37:33.859Z,20.00
2023-04-21T06:40:02.512Z,20.10
2023-04-21T06:42:32.694Z,19.80
2023-04-21T06:45:02.826Z,19.80
2023-04-21T06:47:35.336Z,19.50
2023-04-21T06:50:03.937Z,19.90
2023-04-21T06:52:32.699Z,19.80
2023-04-21T06:55:01.301Z,19.60
2023-04-21T06:57:30.891Z,19.40
2023-04-21T06:59:59.784Z,19.30
2023-04-21T07:02:29.982Z,19.00
2023-04-21T07:04:58.910Z,19.20
2023-04-21T07:07:27.526Z,19.20
2023-04-21T07:09:56.091Z,19.10
2023-04-21T07:12:24.819Z,19.00
2023-04-21T07:14:53.504Z,18.70
2023-04-21T07:17:22.085Z,18.60
2023-04-21T07:19:52.115Z,18.60
2023-04-21T07:22:21.006Z,18.40
2023-04-21T07:24:49.705Z,18.10
2023-04-21T07:27:19.685Z,17.90
2023-04-21T07:29:48.220Z,17.70
2023-04-21T07:32:16.808Z,17.20
2023-04-21T07:34:47.060Z,17.00
2023-04-21T07:37:17.552Z,17.00
2023-04-21T07:39:46.033Z,16.80
2023-04-21T07:42:14.594Z,16.40
2023-04-21T07:44:43.250Z,16.20
2023-04-21T07:47:11.937Z,15.70
2023-04-21T07:49:40.593Z,15.50
2023-04-21T07:52:09.191Z,15.40
2023-04-21T07:54:39.238Z,15.40
2023-04-21T07:57:08.355Z,15.50
2023-04-21T07:59:36.916Z,15.60
2023-04-21T08:02:05.795Z,15.40
2023-04-21T08:04:34.677Z,15.20
2023-04-21T08:07:03.964Z,15.40
2023-04-21T08:09:32.661Z,15.50
2023-04-21T08:12:03.374Z,15.50
2023-04-21T08:14:32.436Z,15.50
2023-04-21T08:17:01.667Z,15.50
2023-04-21T08:19:30.479Z,15.70
2023-04-21T08:21:59.103Z,15.80
2023-04-21T08:24:27.775Z,15.90
2023-04-21T08:26:57.728Z,16.10
2023-04-21T08:29:27.744Z,16.00
2023-04-21T08:31:56.403Z,15.90
2023-04-21T08:34:27.364Z,16.10
2023-04-21T08:36:56.472Z,16.10
2023-04-21T08:39:25.078Z,16.20
2023-04-21T08:41:53.920Z,16.20
2023-04-21T08:44:22.621Z,16.30
2023-04-21T08:46:53.667Z,16.60
2023-04-21T08:49:22.697Z,16.70
2023-04-21T08:51:51.443Z,16.70
2023-04-21T08:54:20.093Z,16.60
2023-04-21T08:56:49.538Z,16.70
2023-04-21T08:59:18.275Z,16.90
2023-04-21T09:02:13.188Z,17.10
2023-04-21T09:04:42.820Z,16.90
2023-04-21T09:07:11.717Z,17.10
2023-04-21T09:09:56.983Z,17.00
2023-04-21T09:12:26.000Z,17.20
2023-04-21T09:14:54.885Z,17.30
2023-04-21T09:17:32.557Z,17.10
2023-04-21T09:20:16.479Z,17.50
2023-04-21T09:22:45.535Z,17.50
2023-04-21T09:25:18.794Z,17.60
2023-04-21T09:27:47.648Z,17.80
2023-04-21T09:30:20.831Z,18.20
2023-04-21T09:32:51.181Z,18.20
2023-04-21T09:35:19.775Z,18.40
2023-04-21T09:37:48.738Z,18.60
2023-04-21T09:40:20.063Z,18.80
2023-04-21T09:42:49.618Z,18.80
2023-04-21T09:47:52.785Z,18.50
2023-04-21T09:50:41.853Z,18.70
2023-04-21T09:53:15.343Z,18.40
2023-04-21T09:55:47.770Z,18.30
2023-04-21T09:58:21.396Z,18.40
2023-04-21T10:00:51.890Z,18.30
2023-04-21T10:03:25.285Z,18.40
2023-04-21T10:05:54.350Z,18.70
2023-04-21T10:08:23.306Z,18.80
2023-04-21T10:10:54.117Z,18.50
2023-04-21T10:13:23.629Z,18.20
2023-04-21T10:16:03.726Z,18.30
2023-04-21T10:18:36.009Z,18.30
2023-04-21T10:21:06.696Z,18.40
2023-04-21T10:23:39.774Z,18.40
2023-04-21T10:26:11.787Z,18.50
2023-04-21T10:28:45.455Z,18.70
2023-04-21T10:31:36.191Z,18.90
2023-04-21T10:34:34.206Z,19.10
2023-04-21T10:37:26.623Z,19.10
2023-04-21T10:39:57.247Z,19.00
2023-04-21T10:42:40.668Z,19.10
2023-04-21T10:45:13.953Z,19.10
2023-04-21T10:47:51.583Z,19.10
2023-04-21T10:50:25.536Z,19.00
2023-04-21T10:52:57.115Z,19.00
2023-04-21T10:55:29.603Z,19.20
2023-04-21T10:57:59.300Z,19.40
2023-04-21T11:00:27.903Z,19.50
2023-04-21T11:03:02.985Z,19.60
2023-04-21T11:05:38.815Z,19.50
2023-04-21T11:08:13.080Z,19.20
2023-04-21T11:10:59.983Z,19.10
2023-04-21T11:13:33.713Z,18.90
2023-04-21T11:16:07.549Z,18.70
2023-04-21T11:18:41.513Z,18.60
2023-04-21T11:21:20.298Z,18.50
2023-04-21T11:23:53.521Z,18.60
2023-04-21T11:26:32.686Z,18.80
2023-04-21T11:29:03.084Z,19.00
2023-04-21T11:31:32.384Z,18.90
2023-04-21T11:34:01.363Z,18.90
2023-04-21T11:36:33.505Z,18.90
2023-04-21T11:39:08.234Z,19.10
2023-04-21T11:41:37.745Z,19.20
2023-04-21T11:44:06.399Z,19.30
2023-04-21T11:46:37.040Z,19.30
2023-04-21T11:49:07.406Z,19.50
2023-04-21T11:51:39.228Z,19.50
2023-04-21T11:54:09.290Z,19.60
2023-04-21T11:56:38.997Z,19.80
2023-04-21T11:59:11.986Z,19.70
2023-04-21T12:01:47.462Z,19.20
2023-04-21T12:04:17.670Z,18.70
2023-04-21T12:06:48.864Z,18.40
2023-04-21T12:09:22.524Z,18.40
2023-04-21T12:11:52.317Z,18.30
2023-04-21T12:14:22.770Z,18.60
2023-04-21T12:16:52.337Z,18.80
2023-04-21T12:19:26.608Z,18.90
2023-04-21T12:21:57.525Z,19.00
2023-04-21T12:24:26.446Z,19.10
2023-04-21T12:26:55.600Z,19.00
2023-04-21T12:29:24.111Z,18.80
2023-04-21T12:31:52.654Z,18.80
2023-04-21T12:34:21.244Z,19.10
2023-04-21T12:43:20.190Z,19.30
2023-04-21T12:45:50.294Z,19.30
2023-04-21T12:48:19.010Z,19.40
2023-04-21T12:50:47.835Z,19.40
2023-04-21T12:53:16.699Z,19.40
2023-04-21T12:55:56.881Z,19.40
2023-04-21T12:58:34.337Z,19.50
2023-04-21T13:01:03.017Z,19.70
2023-04-21T13:03:31.802Z,19.80
2023-04-21T13:06:00.654Z,19.80
2023-04-21T13:08:29.351Z,19.80
2023-04-21T13:10:57.833Z,19.70
2023-04-21T13:13:26.666Z,19.60
2023-04-21T13:15:56.669Z,19.50
2023-04-21T13:18:25.373Z,19.40
2023-04-21T13:20:54.025Z,19.20
2023-04-21T13:23:22.630Z,19.30
2023-04-21T13:25:52.944Z,19.30
2023-04-21T13:28:21.807Z,19.40
2023-04-21T13:30:51.026Z,19.60
2023-04-21T13:33:21.783Z,19.70
2023-04-21T13:35:50.918Z,19.80
2023-04-21T13:38:21.304Z,19.90
2023-04-21T13:40:51.001Z,20.00
2023-04-21T13:43:19.679Z,19.80
2023-04-21T13:45:50.034Z,19.70
2023-04-21T13:48:19.974Z,19.70
2023-04-21T13:50:49.148Z,19.50
2023-04-21T13:53:19.892Z,19.20
2023-04-21T13:55:49.828Z,18.90
2023-04-21T13:58:18.783Z,18.70
2023-04-21T14:00:47.432Z,18.60
2023-04-21T14:03:16.858Z,18.70
2023-04-21T14:08:15.623Z,18.80
2023-04-21T14:10:44.270Z,18.70
2023-04-21T14:13:17.623Z,18.70
2023-04-21T14:16:01.589Z,18.90
2023-04-21T14:18:30.442Z,19.00
2023-04-21T14:21:00.407Z,19.10
2023-04-21T14:23:28.963Z,19.10
2023-04-21T14:25:57.570Z,19.10
2023-04-21T14:28:26.146Z,19.10
2023-04-21T14:30:54.761Z,19.20
2023-04-21T14:33:23.407Z,19.20
2023-04-21T14:35:52.768Z,19.20
2023-04-21T14:38:22.980Z,19.00
2023-04-21T14:40:54.456Z,19.00
2023-04-21T14:43:23.100Z,18.90
2023-04-21T14:45:51.766Z,18.70
2023-04-21T14:48:20.534Z,18.70
2023-04-21T14:50:49.282Z,18.60
2023-04-21T14:53:17.872Z,18.60
2023-04-21T14:55:47.889Z,18.60
2023-04-21T14:58:16.560Z,18.60
2023-04-21T15:00:45.516Z,18.50
2023-04-21T15:03:14.315Z,18.50
2023-04-21T15:05:43.108Z,18.60
2023-04-21T15:08:11.994Z,18.60
2023-04-21T15:10:40.643Z,18.60
2023-04-21T15:13:10.795Z,18.50
2023-04-21T15:15:39.472Z,18.60
2023-04-21T15:18:08.706Z,18.60
2023-04-21T15:20:44.434Z,18.60
2023-04-21T15:23:14.369Z,18.60
2023-04-21T15:25:43.589Z,18.60
2023-04-21T15:28:14.244Z,18.60
2023-04-21T15:30:42.880Z,18.50
2023-04-21T15:33:12.627Z,18.50
2023-04-21T15:35:41.156Z,18.50
2023-04-21T15:38:09.830Z,18.40
2023-04-21T15:40:46.598Z,18.40
2023-04-21T15:43:25.732Z,18.40
2023-04-21T15:45:54.575Z,18.40
2023-04-21T15:48:23.309Z,18.40
2023-04-21T15:50:51.957Z,18.30
2023-04-21T15:53:20.675Z,18.20
2023-04-21T15:55:49.489Z,18.20
2023-04-21T15:58:18.121Z,18.20
2023-04-21T16:00:48.076Z,18.20
2023-04-21T16:03:16.764Z,18.20
2023-04-21T16:05:46.002Z,18.20
2023-04-21T16:08:14.602Z,18.10
2023-04-21T16:10:43.188Z,18.10
2023-04-21T16:13:11.761Z,18.10
2023-04-21T16:15:40.654Z,18.00
2023-04-21T16:18:11.035Z,18.00
2023-04-21T16:20:39.687Z,17.90
2023-04-21T16:23:08.346Z,17.90
2023-04-21T16:25:36.980Z,17.90
2023-04-21T16:28:06.532Z,17.80
2023-04-21T16:30:36.206Z,17.80
2023-04-21T16:33:04.962Z,17.80
2023-04-21T16:35:35.160Z,17.70
2023-04-21T16:38:03.838Z,17.70
2023-04-21T16:40:32.523Z,17.60
2023-04-21T16:43:01.145Z,17.60
2023-04-21T16:45:30.081Z,17.60
2023-04-21T16:47:58.957Z,17.60
2023-04-21T16:50:27.858Z,17.60
2023-04-21T16:52:57.806Z,17.50
2023-04-21T16:55:26.494Z,17.40
2023-04-21T16:57:55.033Z,17.40
2023-04-21T17:00:23.706Z,17.30
2023-04-21T17:02:52.324Z,17.30
2023-04-21T17:05:20.963Z,17.20
2023-04-21T17:07:49.469Z,17.10
2023-04-21T17:10:19.631Z,17.10
2023-04-21T17:12:48.377Z,17.00
2023-04-21T17:15:17.061Z,16.90
2023-04-21T17:17:47.207Z,16.90
2023-04-21T17:20:16.376Z,16.80
2023-04-21T17:22:44.894Z,16.80
2023-04-21T17:25:13.420Z,16.70
2023-04-21T17:27:43.572Z,16.60
2023-04-21T17:30:12.920Z,16.50
2023-04-21T17:32:41.706Z,16.40
2023-04-21T17:35:10.837Z,16.40
2023-04-21T17:37:39.563Z,16.30
2023-04-21T17:40:09.784Z,16.30
2023-04-21T17:42:38.728Z,16.20
2023-04-21T17:45:09.745Z,16.10
2023-04-21T17:47:38.347Z,16.00
2023-04-21T17:50:08.984Z,16.00
2023-04-21T17:52:37.551Z,15.90
2023-04-21T17:55:06.901Z,15.80
2023-04-21T17:57:36.322Z,15.80
2023-04-21T18:00:07.998Z,15.80
2023-04-21T18:02:38.100Z,15.70
2023-04-21T18:05:07.254Z,15.60
2023-04-21T18:07:36.295Z,15.50
2023-04-21T18:10:05.432Z,15.40
2023-04-21T18:12:34.197Z,15.40
2023-04-21T18:15:03.327Z,15.30
2023-04-21T18:17:34.519Z,15.20
2023-04-21T18:20:04.805Z,15.10
2023-04-21T18:22:34.262Z,15.00
2023-04-21T18:25:03.347Z,15.00
2023-04-21T18:27:33.469Z,14.90
2023-04-21T18:30:02.172Z,14.80
2023-04-21T18:32:34.049Z,14.70
2023-04-21T18:35:04.741Z,14.60
2023-04-21T18:37:33.929Z,14.60
2023-04-21T18:40:02.442Z,14.60
2023-04-21T18:42:32.744Z,14.40
2023-04-21T18:45:03.999Z,14.40
2023-04-21T18:47:33.479Z,14.40
2023-04-21T18:50:02.111Z,14.30
2023-04-21T18:52:35.147Z,14.20
2023-04-21T18:55:03.730Z,14.20
2023-04-21T18:57:32.848Z,14.10
2023-04-21T19:00:01.505Z,14.10
2023-04-21T19:02:33.057Z,14.10
2023-04-21T19:05:01.790Z,14.00
2023-04-21T19:07:36.670Z,14.00
2023-04-21T19:10:05.946Z,13.90
2023-04-21T19:12:34.740Z,13.90
2023-04-21T19:15:05.194Z,13.90
2023-04-21T19:17:34.430Z,13.80
2023-04-21T19:20:03.021Z,13.80
2023-04-21T19:22:36.294Z,13.80
2023-04-21T19:25:06.077Z,13.80
2023-04-21T19:27:34.732Z,13.70
2023-04-21T19:30:03.352Z,13.70
2023-04-21T19:32:35.468Z,13.70
2023-04-21T19:35:04.616Z,13.70
2023-04-21T19:37:35.908Z,13.70
2023-04-21T19:40:05.564Z,13.60
2023-04-21T19:42:34.454Z,13.60
2023-04-21T19:45:03.067Z,13.60
2023-04-21T19:47:36.324Z,13.50
2023-04-21T19:50:05.345Z,13.50
2023-04-21T19:52:35.641Z,13.40
2023-04-21T19:55:04.728Z,13.40
2023-04-21T19:57:33.601Z,13.30
2023-04-21T20:00:02.303Z,13.20
2023-04-21T20:02:42.377Z,13.10
2023-04-21T20:05:11.686Z,13.00
2023-04-21T20:07:41.735Z,13.00
2023-04-21T20:10:11.425Z,12.90
2023-04-21T20:12:39.950Z,12.80
2023-04-21T20:15:11.244Z,12.70
2023-04-21T20:17:39.983Z,12.70
2023-04-21T20:20:10.838Z,12.70
2023-04-21T20:22:39.453Z,12.60
2023-04-21T20:25:10.971Z,12.50
2023-04-21T20:27:39.555Z,12.50
2023-04-21T20:30:09.533Z,12.50
2023-04-21T20:32:38.223Z,12.40
2023-04-21T20:35:08.178Z,12.40
2023-04-21T20:37:37.130Z,12.40
2023-04-21T20:40:08.477Z,12.30
2023-04-21T20:42:38.992Z,12.30
2023-04-21T20:45:09.397Z,12.30
2023-04-21T20:47:38.262Z,12.30
2023-04-21T20:50:08.348Z,12.30
2023-04-21T20:52:37.134Z,12.30
2023-04-21T20:55:06.093Z,12.20
2023-04-21T20:57:34.723Z,12.10
2023-04-21T21:00:06.068Z,12.00
2023-04-21T21:02:37.797Z,12.00
2023-04-21T21:05:07.006Z,11.90
2023-04-21T21:07:35.697Z,11.90
2023-04-21T21:10:04.794Z,11.80
2023-04-21T21:12:34.581Z,11.70
2023-04-21T21:15:05.493Z,11.70
2023-04-21T21:17:34.485Z,11.60
2023-04-21T21:20:03.149Z,11.50
2023-04-21T21:22:33.121Z,11.40
2023-04-21T21:25:01.705Z,11.40
2023-04-21T21:27:30.661Z,11.30
2023-04-21T21:46:01.660Z,11.00
2023-04-21T21:48:30.323Z,11.00
2023-04-21T21:50:58.856Z,10.90
2023-04-21T21:53:27.412Z,10.90
2023-04-21T21:55:56.032Z,10.90
2023-04-21T21:58:24.600Z,10.80
2023-04-21T22:00:53.156Z,10.80
2023-04-21T22:03:23.702Z,10.70
2023-04-21T22:05:52.341Z,10.70
2023-04-21T22:08:20.898Z,10.60
2023-04-21T22:10:49.462Z,10.60
2023-04-21T22:13:18.056Z,10.60
2023-04-21T22:15:46.627Z,10.60
2023-04-21T22:18:28.248Z,10.50
2023-04-21T22:20:59.124Z,10.60
2023-04-21T22:23:27.664Z,10.50
2023-04-21T22:25:56.184Z,10.50
2023-04-21T22:28:24.811Z,10.50
2023-04-21T22:30:53.570Z,10.50
2023-04-21T22:33:50.713Z,10.50
2023-04-21T22:36:20.658Z,10.50
2023-04-21T22:38:49.395Z,10.40
2023-04-21T22:41:17.960Z,10.40
2023-04-21T22:43:46.473Z,10.30
2023-04-21T22:46:15.402Z,10.30
2023-04-21T22:48:46.641Z,10.30
2023-04-21T22:51:15.531Z,10.20
2023-04-21T22:53:45.450Z,10.20
2023-04-21T22:56:14.091Z,10.20
2023-04-21T22:58:42.781Z,10.10
2023-04-21T23:01:11.395Z,10.10
2023-04-21T23:03:39.970Z,10.00
2023-04-21T23:06:09.132Z,9.90
2023-04-21T23:08:37.715Z,9.90
2023-04-21T23:11:07.787Z,9.80
2023-04-21T23:13:36.446Z,9.80
2023-04-21T23:16:05.124Z,9.70
2023-04-21T23:18:33.781Z,9.70
2023-04-21T23:21:02.345Z,9.60
2023-04-21T23:23:30.988Z,9.60
2023-04-21T23:25:59.515Z,9.60
2023-04-21T23:28:29.440Z,9.60
2023-04-21T23:30:58.120Z,9.60
2023-04-21T23:33:27.204Z,9.60
2023-04-21T23:35:56.258Z,9.50
2023-04-21T23:38:25.010Z,9.50
2023-04-21T23:40:53.541Z,9.40
2023-04-21T23:43:22.071Z,9.30
2023-04-21T23:45:52.090Z,9.20
2023-04-21T23:48:20.742Z,9.00
2023-04-21T23:50:49.312Z,8.90
2023-04-21T23:53:17.952Z,8.80
2023-04-21T23:55:47.271Z,8.70
2023-04-21T23:58:15.904Z,8.60
